createdAt,value
2022-08-12T00:00:44.885Z,19.55
2022-08-12T00:03:35.475Z,19.51
2022-08-12T00:06:26.016Z,19.48
2022-08-12T00:09:16.132Z,19.41
2022-08-12T00:12:06.328Z,19.35
2022-08-12T00:14:56.588Z,19.33
2022-08-12T00:17:47.170Z,19.29
2022-08-12T00:20:37.130Z,19.21
2022-08-12T00:23:27.448Z,19.18
2022-08-12T00:26:23.772Z,19.15
2022-08-12T00:29:15.340Z,19.11
2022-08-12T00:32:05.799Z,19.07
2022-08-12T00:34:55.891Z,18.96
2022-08-12T00:37:45.992Z,18.90
2022-08-12T00:40:36.149Z,18.84
2022-08-12T00:43:07.700Z,18.80
2022-08-12T00:45:59.211Z,18.74
2022-08-12T00:48:31.036Z,18.70
2022-08-12T00:51:02.575Z,18.69
2022-08-12T00:53:35.343Z,18.67
2022-08-12T00:56:06.932Z,18.60
2022-08-12T00:58:38.799Z,18.55
2022-08-12T01:01:10.392Z,18.49
2022-08-12T01:04:01.195Z,18.44
2022-08-12T01:06:53.620Z,18.43
2022-08-12T01:09:44.261Z,18.38
2022-08-12T01:12:16.104Z,18.35
2022-08-12T01:14:47.614Z,18.26
2022-08-12T01:17:20.125Z,18.24
2022-08-12T01:19:51.635Z,18.23
2022-08-12T01:22:25.144Z,18.19
2022-08-12T01:24:56.860Z,18.17
2022-08-12T01:27:28.910Z,18.13
2022-08-12T01:30:00.461Z,18.13
2022-08-12T01:32:33.389Z,18.06
2022-08-12T01:35:05.629Z,18.03
2022-08-12T01:37:37.483Z,18.00
2022-08-12T01:40:36.732Z,17.95
2022-08-12T01:43:01.480Z,17.91
2022-08-12T01:45:42.865Z,17.90
2022-08-12T01:48:15.511Z,17.88
2022-08-12T01:50:47.010Z,17.84
2022-08-12T01:53:20.358Z,17.79
2022-08-12T01:55:51.855Z,17.76
2022-08-12T01:58:24.590Z,17.73
2022-08-12T02:00:59.122Z,17.73
2022-08-12T02:03:31.693Z,17.69
2022-08-12T02:06:22.133Z,17.67
2022-08-12T02:09:12.647Z,17.65
2022-08-12T02:11:44.150Z,17.61
2022-08-12T02:14:16.134Z,17.57
2022-08-12T02:16:47.699Z,17.54
2022-08-12T02:19:22.315Z,17.51
2022-08-12T02:21:55.125Z,17.49
2022-08-12T02:24:26.701Z,17.45
2022-08-12T02:27:00.334Z,17.43
2022-08-12T02:29:31.847Z,17.40
2022-08-12T02:32:03.675Z,17.40
2022-08-12T02:34:35.208Z,17.36
2022-08-12T02:37:07.195Z,17.34
2022-08-12T02:39:38.829Z,17.33
2022-08-12T02:42:10.964Z,17.32
2022-08-12T02:44:43.430Z,17.30
2022-08-12T02:47:18.240Z,17.26
2022-08-12T02:50:07.141Z,17.21
2022-08-12T02:52:39.226Z,17.19
2022-08-12T02:55:12.727Z,17.14
2022-08-12T02:58:00.893Z,17.09
2022-08-12T03:00:38.879Z,17.10
2022-08-12T03:03:10.831Z,17.06
2022-08-12T03:05:44.318Z,17.02
2022-08-12T03:08:23.426Z,16.96
2022-08-12T03:11:03.796Z,16.92
2022-08-12T03:13:38.977Z,16.88
2022-08-12T03:16:11.117Z,16.85
2022-08-12T03:18:45.696Z,16.84
2022-08-12T03:21:52.948Z,16.82
2022-08-12T03:24:09.543Z,16.79
2022-08-12T03:26:41.420Z,16.73
2022-08-12T03:29:12.910Z,16.72
2022-08-12T03:31:44.800Z,16.73
2022-08-12T03:34:23.453Z,16.75
2022-08-12T03:36:55.388Z,16.75
2022-08-12T03:39:39.128Z,16.75
2022-08-12T03:42:10.973Z,16.73
2022-08-12T03:45:01.244Z,16.70
2022-08-12T03:47:51.752Z,16.67
2022-08-12T03:50:41.865Z,16.67
2022-08-12T03:53:32.120Z,16.65
2022-08-12T03:56:22.755Z,16.67
2022-08-12T03:59:12.857Z,16.66
2022-08-12T04:01:44.796Z,16.66
2022-08-12T04:04:16.815Z,16.67
2022-08-12T04:06:48.656Z,16.66
2022-08-12T04:09:20.152Z,16.68
2022-08-12T04:12:10.640Z,16.71
2022-08-12T04:14:42.218Z,16.73
2022-08-12T04:17:14.738Z,16.81
2022-08-12T04:19:47.992Z,16.87
2022-08-12T04:22:19.851Z,16.94
2022-08-12T04:24:53.768Z,17.00
2022-08-12T04:27:25.796Z,17.05
2022-08-12T04:30:16.963Z,17.12
2022-08-12T04:32:50.758Z,17.21
2022-08-12T04:35:22.468Z,17.25
2022-08-12T04:37:58.565Z,17.36
2022-08-12T04:40:32.055Z,17.44
2022-08-12T04:43:03.826Z,17.52
2022-08-12T04:45:37.413Z,17.60
2022-08-12T04:48:09.436Z,17.68
2022-08-12T04:50:41.210Z,17.79
2022-08-12T04:53:13.745Z,17.87
2022-08-12T04:55:46.644Z,17.97
2022-08-12T04:58:29.253Z,18.08
2022-08-12T05:01:01.694Z,18.20
2022-08-12T05:03:46.721Z,18.32
2022-08-12T05:06:26.652Z,18.46
2022-08-12T05:09:01.945Z,18.57
2022-08-12T05:11:53.842Z,18.67
2022-08-12T05:14:25.896Z,18.81
2022-08-12T05:16:57.749Z,18.91
2022-08-12T05:19:30.319Z,19.00
2022-08-12T05:22:02.468Z,19.11
2022-08-12T05:24:34.001Z,19.22
2022-08-12T05:27:05.824Z,19.33
2022-08-12T05:30:07.042Z,19.47
2022-08-12T05:32:29.415Z,19.61
2022-08-12T05:35:06.376Z,19.75
2022-08-12T05:37:39.017Z,19.90
2022-08-12T05:40:11.610Z,20.04
2022-08-12T05:42:44.097Z,20.20
2022-08-12T05:45:15.784Z,20.39
2022-08-12T05:47:53.529Z,20.53
2022-08-12T05:50:26.131Z,20.74
2022-08-12T05:52:57.991Z,20.82
2022-08-12T05:55:31.326Z,20.94
2022-08-12T05:58:03.276Z,21.17
2022-08-12T06:00:34.816Z,20.15
2022-08-12T06:03:07.756Z,21.48
2022-08-12T06:05:53.244Z,21.62
2022-08-12T06:08:26.581Z,21.84
2022-08-12T06:10:58.523Z,22.00
2022-08-12T06:13:53.889Z,22.12
2022-08-12T06:16:21.609Z,22.29
2022-08-12T06:18:54.494Z,22.40
2022-08-12T06:21:26.337Z,22.60
2022-08-12T06:23:58.321Z,22.76
2022-08-12T06:26:30.222Z,22.81
2022-08-12T06:29:01.770Z,23.03
2022-08-12T06:31:34.983Z,23.17
2022-08-12T06:35:24.057Z,23.38
2022-08-12T06:36:58.389Z,23.54
2022-08-12T06:39:31.316Z,23.78
2022-08-12T06:42:32.270Z,23.89
2022-08-12T06:45:07.281Z,23.99
2022-08-12T06:47:39.314Z,24.12
2022-08-12T06:50:13.737Z,24.42
2022-08-12T06:52:45.649Z,24.50
2022-08-12T06:55:20.452Z,24.69
2022-08-12T06:58:01.731Z,24.84
2022-08-12T07:00:39.919Z,25.00
2022-08-12T07:03:23.514Z,25.22
2022-08-12T07:05:55.647Z,25.41
2022-08-12T07:08:28.944Z,25.41
2022-08-12T07:11:00.997Z,25.41
2022-08-12T07:14:11.748Z,25.74
2022-08-12T07:16:49.648Z,25.80
2022-08-12T07:19:21.162Z,25.62
2022-08-12T07:22:00.055Z,26.00
2022-08-12T07:24:34.280Z,26.22
2022-08-12T07:27:06.190Z,26.48
2022-08-12T07:30:02.655Z,26.60
2022-08-12T07:32:29.395Z,26.74
2022-08-12T07:35:02.170Z,26.76
2022-08-12T07:37:35.473Z,26.72
2022-08-12T07:40:07.098Z,27.08
2022-08-12T07:42:39.024Z,27.07
2022-08-12T07:45:10.592Z,27.40
2022-08-12T07:47:43.728Z,27.24
2022-08-12T07:50:18.890Z,27.39
2022-08-12T07:52:53.424Z,27.58
2022-08-12T07:55:25.386Z,27.45
2022-08-12T07:57:59.200Z,27.69
2022-08-12T08:00:31.920Z,27.64
2022-08-12T08:03:03.803Z,27.77
2022-08-12T08:05:39.717Z,27.70
2022-08-12T08:08:11.208Z,27.78
2022-08-12T08:10:43.105Z,28.09
2022-08-12T08:13:15.299Z,28.12
2022-08-12T08:16:02.334Z,28.21
2022-08-12T08:18:34.279Z,28.24
2022-08-12T08:21:06.120Z,28.35
2022-08-12T08:24:02.012Z,28.40
2022-08-12T08:26:37.895Z,28.57
2022-08-12T08:29:09.415Z,28.82
2022-08-12T08:31:45.415Z,28.69
2022-08-12T08:34:27.472Z,28.92
2022-08-12T08:37:09.859Z,28.79
2022-08-12T08:39:42.807Z,28.96
2022-08-12T08:42:33.027Z,28.94
2022-08-12T08:45:13.263Z,29.15
2022-08-12T08:47:44.791Z,29.11
2022-08-12T08:50:16.807Z,29.35
2022-08-12T08:52:48.911Z,29.74
2022-08-12T08:55:27.383Z,29.84
2022-08-12T08:58:05.130Z,29.87
2022-08-12T09:00:40.069Z,29.82
2022-08-12T09:05:06.986Z,29.93
2022-08-12T09:06:03.887Z,30.01
2022-08-12T09:08:38.318Z,30.39
2022-08-12T09:14:29.452Z,30.41
2022-08-12T09:17:01.255Z,30.37
2022-08-12T09:19:33.433Z,30.47
2022-08-12T09:22:08.280Z,30.83
2022-08-12T09:24:40.252Z,31.36
2022-08-12T09:27:16.327Z,31.17
2022-08-12T09:30:08.655Z,31.17
2022-08-12T09:33:04.161Z,31.06
2022-08-12T09:35:42.778Z,30.86
2022-08-12T09:38:28.214Z,31.04
2022-08-12T09:42:34.163Z,30.03
2022-08-12T09:44:38.932Z,30.71
2022-08-12T09:47:10.787Z,31.21
2022-08-12T09:49:42.932Z,31.63
2022-08-12T09:52:15.378Z,31.48
2022-08-12T09:54:48.326Z,31.87
2022-08-12T09:58:07.598Z,31.80
2022-08-12T10:00:27.547Z,32.00
2022-08-12T10:03:03.296Z,31.49
2022-08-12T10:06:26.775Z,32.13
2022-08-12T10:08:30.401Z,31.75
2022-08-12T10:11:20.935Z,32.62
2022-08-12T10:13:53.180Z,32.53
2022-08-12T10:16:25.481Z,31.86
2022-08-12T10:19:00.315Z,32.33
2022-08-12T10:21:37.823Z,32.18
2022-08-12T10:24:10.006Z,32.36
2022-08-12T10:27:00.434Z,32.48
2022-08-12T10:30:03.146Z,32.05
2022-08-12T10:32:44.979Z,31.90
2022-08-12T10:35:18.952Z,32.19
2022-08-12T10:38:37.876Z,32.67
2022-08-12T10:41:01.272Z,32.85
2022-08-12T10:43:54.224Z,33.11
2022-08-12T10:46:31.183Z,31.85
2022-08-12T10:49:06.873Z,31.20
2022-08-12T10:52:32.373Z,32.09
2022-08-12T10:54:51.374Z,32.01
2022-08-12T10:57:50.354Z,32.35
2022-08-12T11:00:30.844Z,32.36
2022-08-12T11:04:22.340Z,30.69
2022-08-12T11:07:07.998Z,31.19
2022-08-12T11:08:52.513Z,32.61
2022-08-12T11:12:07.677Z,32.53
2022-08-12T11:14:49.697Z,31.76
2022-08-12T11:17:44.010Z,32.18
2022-08-12T11:20:04.851Z,32.24
2022-08-12T11:22:37.229Z,33.43
2022-08-12T11:25:10.636Z,32.67
2022-08-12T11:27:43.359Z,32.03
2022-08-12T11:30:31.371Z,31.49
2022-08-12T11:33:03.588Z,30.79
2022-08-12T11:35:44.360Z,30.24
2022-08-12T11:38:21.996Z,30.80
2022-08-12T11:40:55.520Z,30.99
2022-08-12T11:43:30.828Z,31.37
2022-08-12T11:46:02.454Z,31.45
2022-08-12T11:48:51.435Z,31.59
2022-08-12T11:51:24.203Z,32.05
2022-08-12T11:54:01.170Z,33.29
2022-08-12T11:56:38.845Z,33.69
2022-08-12T12:02:05.545Z,33.79
2022-08-12T12:04:37.674Z,33.69
2022-08-12T12:07:11.388Z,32.32
2022-08-12T12:09:52.007Z,31.54
2022-08-12T12:12:25.412Z,31.39
2022-08-12T12:15:03.162Z,31.92
2022-08-12T12:17:38.809Z,32.14
2022-08-12T12:20:11.525Z,32.16
2022-08-12T12:22:45.356Z,33.18
2022-08-12T12:25:19.693Z,33.35
2022-08-12T12:28:04.891Z,33.65
2022-08-12T12:30:38.180Z,33.53
2022-08-12T12:33:10.171Z,33.62
2022-08-12T12:36:17.068Z,32.85
2022-08-12T12:38:41.239Z,32.67
2022-08-12T12:41:16.406Z,33.20
2022-08-12T12:43:56.583Z,33.85
2022-08-12T12:46:35.801Z,32.95
2022-08-12T12:49:11.203Z,31.93
2022-08-12T12:51:58.142Z,31.68
2022-08-12T12:54:53.120Z,31.26
2022-08-12T12:57:59.467Z,30.94
2022-08-12T13:00:18.655Z,30.70
2022-08-12T13:02:53.934Z,31.43
2022-08-12T13:05:27.784Z,32.22
2022-08-12T13:08:01.057Z,32.10
2022-08-12T13:10:36.803Z,32.01
2022-08-12T13:14:06.949Z,31.67
2022-08-12T13:16:03.776Z,31.16
2022-08-12T13:18:46.557Z,30.35
2022-08-12T13:21:33.572Z,30.32
2022-08-12T13:24:10.003Z,30.66
2022-08-12T13:26:45.743Z,30.79
2022-08-12T13:29:18.134Z,30.72
2022-08-12T13:32:19.071Z,31.16
2022-08-12T13:34:43.037Z,30.96
2022-08-12T13:37:17.632Z,31.02
2022-08-12T13:39:49.506Z,31.90
2022-08-12T13:42:22.829Z,33.04
2022-08-12T13:44:54.961Z,32.52
2022-08-12T13:47:26.963Z,31.95
2022-08-12T13:50:00.491Z,32.01
2022-08-12T13:52:32.028Z,31.89
2022-08-12T13:55:06.441Z,31.45
2022-08-12T13:57:44.462Z,30.77
2022-08-12T14:00:17.243Z,32.01
2022-08-12T14:02:53.200Z,31.75
2022-08-12T14:05:31.482Z,33.56
2022-08-12T14:08:21.270Z,33.11
2022-08-12T14:10:54.070Z,33.54
2022-08-12T14:14:03.276Z,33.23
2022-08-12T14:16:37.616Z,32.99
2022-08-12T14:19:23.338Z,31.90
2022-08-12T14:22:00.562Z,32.66
2022-08-12T14:24:40.515Z,33.82
2022-08-12T14:27:12.679Z,34.43
2022-08-12T14:30:04.610Z,34.78
2022-08-12T14:32:39.107Z,35.06
2022-08-12T14:35:11.240Z,34.80
2022-08-12T14:37:58.008Z,35.05
2022-08-12T14:40:31.063Z,35.42
2022-08-12T14:43:06.150Z,35.19
2022-08-12T14:45:49.011Z,36.00
2022-08-12T14:48:24.536Z,35.03
2022-08-12T14:52:10.624Z,34.34
2022-08-12T14:59:57.256Z,35.52
2022-08-12T15:02:29.981Z,35.26
2022-08-12T15:05:03.480Z,35.39
2022-08-12T15:07:51.258Z,35.85
2022-08-12T15:10:31.652Z,36.04
2022-08-12T15:13:07.693Z,35.95
2022-08-12T15:15:45.646Z,35.89
2022-08-12T15:18:21.467Z,36.35
2022-08-12T15:20:54.721Z,35.26
2022-08-12T15:23:28.871Z,34.32
2022-08-12T15:26:04.428Z,33.69
2022-08-12T15:28:36.579Z,34.11
2022-08-12T15:31:21.773Z,33.12
2022-08-12T15:34:00.097Z,34.08
2022-08-12T15:36:53.605Z,34.63
2022-08-12T15:39:23.769Z,34.06
2022-08-12T15:42:01.900Z,34.12
2022-08-12T15:44:38.905Z,34.36
2022-08-12T15:47:16.370Z,33.49
2022-08-12T15:49:59.922Z,33.82
2022-08-12T15:52:32.546Z,33.61
2022-08-12T15:55:11.257Z,33.26
2022-08-12T15:57:53.194Z,33.12
2022-08-12T16:00:32.191Z,33.02
2022-08-12T16:03:08.447Z,32.93
2022-08-12T16:06:11.281Z,32.38
2022-08-12T16:08:42.673Z,32.50
2022-08-12T16:11:16.326Z,32.19
2022-08-12T16:13:52.367Z,32.08
2022-08-12T16:16:25.071Z,31.90
2022-08-12T16:19:02.086Z,31.50
2022-08-12T16:21:52.880Z,31.29
2022-08-12T16:24:30.120Z,31.14
2022-08-12T16:27:02.055Z,30.74
2022-08-12T16:29:53.480Z,30.59
2022-08-12T16:32:31.850Z,30.27
2022-08-12T16:35:16.163Z,29.72
2022-08-12T16:38:24.591Z,29.56
2022-08-12T16:40:46.290Z,29.37
2022-08-12T16:43:18.424Z,29.27
2022-08-12T16:46:07.691Z,29.17
2022-08-12T16:48:42.477Z,29.14
2022-08-12T16:51:14.548Z,29.14
2022-08-12T16:53:46.337Z,29.15
2022-08-12T16:56:18.145Z,29.08
2022-08-12T16:58:52.245Z,28.91
2022-08-12T17:01:23.979Z,28.86
2022-08-12T17:03:57.503Z,28.81
2022-08-12T17:06:30.787Z,28.82
2022-08-12T17:09:08.430Z,28.70
2022-08-12T17:11:40.396Z,28.60
2022-08-12T17:14:15.069Z,28.56
2022-08-12T17:16:48.715Z,28.54
2022-08-12T17:20:02.490Z,28.44
2022-08-12T17:22:13.110Z,28.38
2022-08-12T17:24:54.997Z,28.37
2022-08-12T17:27:30.906Z,28.30
2022-08-12T17:30:13.491Z,28.30
2022-08-12T17:32:53.292Z,28.36
2022-08-12T17:35:36.819Z,28.37
2022-08-12T17:38:15.920Z,28.25
2022-08-12T17:40:49.082Z,28.25
2022-08-12T17:43:55.954Z,28.21
2022-08-12T17:46:23.962Z,28.14
2022-08-12T17:49:18.947Z,28.08
2022-08-12T17:52:02.760Z,27.95
2022-08-12T17:54:36.709Z,27.88
2022-08-12T17:57:15.995Z,27.83
2022-08-12T17:59:49.446Z,27.79
2022-08-12T18:02:25.460Z,27.70
2022-08-12T18:05:09.509Z,27.69
2022-08-12T18:07:47.344Z,27.77
2022-08-12T18:10:38.877Z,27.73
2022-08-12T18:13:40.195Z,27.73
2022-08-12T18:16:10.139Z,27.67
2022-08-12T18:18:44.782Z,27.57
2022-08-12T18:21:20.565Z,27.50
2022-08-12T18:23:54.320Z,27.44
2022-08-12T18:26:27.022Z,27.29
2022-08-12T18:28:59.173Z,27.25
2022-08-12T18:31:44.027Z,27.22
2022-08-12T18:34:24.977Z,27.13
2022-08-12T18:36:57.341Z,26.99
2022-08-12T18:39:48.922Z,26.88
2022-08-12T18:42:20.823Z,26.78
2022-08-12T18:44:54.118Z,26.69
2022-08-12T18:47:31.342Z,26.61
2022-08-12T18:50:17.974Z,26.51
2022-08-12T18:52:49.829Z,26.44
2022-08-12T18:55:23.822Z,26.35
2022-08-12T18:58:10.002Z,26.28
2022-08-12T19:00:43.325Z,26.14
2022-08-12T19:03:38.754Z,26.07
2022-08-12T19:06:10.946Z,26.01
2022-08-12T19:08:47.928Z,25.94
2022-08-12T19:11:41.085Z,25.90
2022-08-12T19:14:27.489Z,25.83
2022-08-12T19:17:01.420Z,25.76
2022-08-12T19:19:37.417Z,25.69
2022-08-12T19:22:13.751Z,25.59
2022-08-12T19:25:19.145Z,25.53
2022-08-12T19:27:53.978Z,25.49
2022-08-12T19:30:45.357Z,25.43
2022-08-12T19:33:17.528Z,25.40
2022-08-12T19:36:06.883Z,25.40
2022-08-12T19:38:46.863Z,25.38
2022-08-12T19:41:42.619Z,25.34
2022-08-12T19:44:20.789Z,25.34
2022-08-12T19:47:03.711Z,25.30
2022-08-12T19:49:37.678Z,25.29
2022-08-12T19:52:09.517Z,25.28
2022-08-12T19:54:44.027Z,25.26
2022-08-12T19:57:29.339Z,25.23
2022-08-12T20:00:04.023Z,25.21
2022-08-12T20:02:37.055Z,25.19
2022-08-12T20:06:04.471Z,25.17
2022-08-12T20:08:00.407Z,25.13
2022-08-12T20:10:35.293Z,25.14
2022-08-12T20:13:19.116Z,25.15
2022-08-12T20:16:00.072Z,25.13
2022-08-12T20:18:44.214Z,25.11
2022-08-12T20:21:25.307Z,25.07
2022-08-12T20:24:01.021Z,25.04
2022-08-12T20:26:34.387Z,25.00
2022-08-12T20:29:06.319Z,24.97
2022-08-12T20:31:37.814Z,24.92
2022-08-12T20:36:45.100Z,24.86
2022-08-12T20:39:37.490Z,24.84
2022-08-12T20:42:08.858Z,24.76
2022-08-12T20:44:41.080Z,24.71
2022-08-12T20:47:18.748Z,24.66
2022-08-12T20:49:54.977Z,24.61
2022-08-12T20:52:29.789Z,24.56
2022-08-12T20:55:01.961Z,24.48
2022-08-12T20:57:38.069Z,24.44
2022-08-12T21:00:15.279Z,24.39
2022-08-12T21:02:47.278Z,24.35
2022-08-12T21:06:12.298Z,24.30
2022-08-12T21:08:33.292Z,24.22
2022-08-12T21:11:04.937Z,24.15
2022-08-12T21:13:39.098Z,24.09
2022-08-12T21:18:50.728Z,23.93
2022-08-12T21:21:47.120Z,23.91
2022-08-12T21:24:17.027Z,23.85
2022-08-12T21:26:53.443Z,23.81
2022-08-12T21:29:25.868Z,23.79
2022-08-12T21:32:39.929Z,23.75
2022-08-12T21:34:57.172Z,23.69
2022-08-12T21:37:29.415Z,23.65
2022-08-12T21:40:13.230Z,23.57
2022-08-12T21:42:47.838Z,23.54
2022-08-12T21:45:47.336Z,23.50
2022-08-12T21:48:12.699Z,23.43
2022-08-12T21:50:44.457Z,23.37
2022-08-12T21:53:17.153Z,23.32
2022-08-12T21:55:48.714Z,23.27
2022-08-12T21:58:23.324Z,23.20
2022-08-12T22:00:54.898Z,23.18
2022-08-12T22:04:03.143Z,23.14
2022-08-12T22:06:43.104Z,23.08
2022-08-12T22:09:17.578Z,23.02
2022-08-12T22:11:59.157Z,22.96
2022-08-12T22:14:31.751Z,22.92
2022-08-12T22:17:05.126Z,22.86
2022-08-12T22:19:40.610Z,22.84
2022-08-12T22:22:13.336Z,22.81
2022-08-12T22:24:46.024Z,22.80
2022-08-12T22:27:33.280Z,22.78
2022-08-12T22:30:24.550Z,22.79
2022-08-12T22:32:58.971Z,22.78
2022-08-12T22:35:55.660Z,22.72
2022-08-12T22:38:25.515Z,22.72
2022-08-12T22:41:00.918Z,22.72
2022-08-12T22:44:00.035Z,22.72
2022-08-12T22:46:32.835Z,22.70
2022-08-12T22:49:06.664Z,22.67
2022-08-12T22:52:00.131Z,22.69
2022-08-12T22:54:35.674Z,22.67
2022-08-12T22:57:11.793Z,22.63
2022-08-12T22:59:55.210Z,22.60
2022-08-12T23:02:29.124Z,22.54
2022-08-12T23:05:01.895Z,22.50
2022-08-12T23:07:36.035Z,22.48
2022-08-12T23:10:08.399Z,22.42
2022-08-12T23:13:00.243Z,22.40
2022-08-12T23:15:39.796Z,22.33
2022-08-12T23:18:21.156Z,22.28
2022-08-12T23:20:53.052Z,22.23
2022-08-12T23:23:24.927Z,22.22
2022-08-12T23:25:56.435Z,22.16
2022-08-12T23:28:52.508Z,22.12
2022-08-12T23:32:01.822Z,22.07
2022-08-12T23:34:16.509Z,22.02
2022-08-12T23:36:48.388Z,21.98
2022-08-12T23:40:07.280Z,21.91
2022-08-12T23:42:18.199Z,21.88
2022-08-12T23:44:54.249Z,21.83
2022-08-12T23:47:25.772Z,21.78
2022-08-12T23:50:03.133Z,21.73
2022-08-12T23:52:37.046Z,21.69
2022-08-12T23:55:23.524Z,21.66
2022-08-12T23:58:21.377Z,21.60
